Reubens, ID (83548)

3:39 PM PDT on September 01, 2015 (GMT -0700)
Camas Prairie | | Change Station
CLOSE
Current Station
Personal Weather Station
Location: Reubens, ID
Elevation: 3480 ft
Nearby Weather Stations

Elev 3480 ft 46.35 °N, 116.53 °W | Updated 2 seconds ago

Clear
Clear
77.0 °F
Feels Like 78 °F
N
10.4
Wind Variable Wind from NNE
Gusts 10.4 mph

Today
High -- | Low -- °F
--% Chance of Precip.
Yesterday
High -- | Low -- °F
Precip. -- in
6:06 AM 7:25 PM
Waning Gibbous, 86% visible
Pressure 29.81 in
Visibility 10.0 miles
Clouds Clear
Heat Index 78 °F
Dew Point 46 °F
Humidity 33%
Rainfall 0.00 in
Snow Depth Not available.
UV 5 out of 12
Pollen 7.80 out of 12
Air Quality Not available.
Flu Activity Not available.
METAR KGIC 012235Z AUTO 12003KT 10SM CLR 25/08 A2981 RMK AO1 T02450075
Pressure 29.81 in
Visibility 10.0 miles
Clouds Clear
Heat Index 78 °F
Dew Point 46 °F
Humidity 33%
Rainfall 0.00 in
Snow Depth Not available.
UV 5 out of 12
Pollen 7.80 out of 12
Air Quality Not available.
Flu Activity Not available.
METAR KGIC 012235Z AUTO 12003KT 10SM CLR 25/08 A2981 RMK AO1 T02450075

10-Day Weather Forecast

×

Almanac

Astronomy

Sep. 01, 2015 Rise Set
Actual Time
Civil Twilight
Nautical Twilight
Astronomical Twilight
Moon
Length of Visible Light
Length of Day
Tomorrow will be .
, % of the Moon is Illuminated

Today's Extremes

State Highs State Lows

Community

WunderPhotos

Upload Photos

1,851,634 photos uploaded!

WunderBlogs® & News

Nearby

Air Quality

  Air Quality AQ Index Pollutant
Not available.

Snow Depth

Station Depth Elevation

Earthquake Activity

City Distance Mag. Time & Date
Minimum magnitude displayed is 2.5.

Coastal Water Temperatures

Place Temperature

Stations

Nearby Weather Stations

Station Location Temp. Windchill Dew Point Humidity Wind Precip. Elev Updated Type